Meteo Giornale » Osservazioni meteo Stati Uniti (USA) » Douglas Bisbee
ore: 10:56 - Osservazioni Meteo Douglas Bisbee
Lat. 31° 28' N Lon. 109° 36' W Alt. 1266 metri s.l.m.
28 °C
Sereno
Temp. 24 Ore
19 °C
35 °C
Ovest
13 Km/h
Dew point 16 °C
Umidità 48 %
Visibilità 10 Km
Il sole sorge alle ore 05:53
Il sole tramonta alle ore 18:43
| Data e Ora | Cielo e Fenomeni | T °C | DP °C | Um. % | Pres. hPa | Vis. km | Vento km/h | |
|---|---|---|---|---|---|---|---|---|
| Oggi h: 10:56 | Sereno | 28 | 16 | 48 | 1021 | 10 | O 13 | |
| Oggi h: 09:56 | Sereno | 25 | 17 | 61 | 1021 | 10 | NO 14.8 | |
| Oggi h: 08:56 | Molto Nuvoloso | 25 | 17 | 61 | 1021 | 10 | NO 16.7 | |
| Oggi h: 07:56 | Nuvoloso | 23 | 17 | 68 | 1021 | 10 | N 16.7 | |
| Oggi h: 06:56 | Molto Nuvoloso | 21 | 17 | 77 | 1020 | 10 | N 14.8 | |
| Oggi h: 05:56 | Molto Nuvoloso | 20 | 17 | 82 | 1019 | 10 | N/NO 7.4 | |
| Oggi h: 04:56 | Poco Nuvoloso | 20 | 17 | 82 | 1019 | 10 | SO 9.3 | |
| Oggi h: 03:56 | Sereno | 20 | 17 | 82 | 1019 | 10 | N 5.5 | |
| Oggi h: 02:56 | Sereno | 19 | 17 | 88 | 1019 | 10 | NO 11.1 | |
| Oggi h: 01:56 | Pioggia | 21 | 18 | 82 | 1019 | 10 | N/NE 9.3 | |
| Oggi h: 00:56 | Coperto | 21 | 16 | 73 | 1019 | 10 | N 20.3 | |
| Oggi h: 00:12 | Nuvoloso | 22 | 16 | 68 | 1019 | 10 | NO 27.8 | |
| Ieri h: 23:56 | Coperto | 26 | 15 | 50 | 1019 | 10 | O/NO 18.5 | |
| Ieri h: 22:56 | Sereno | 27 | 13 | 42 | 1018 | 10 | NO 7.4 | |
| Ieri h: 21:56 | Sereno | 27 | 13 | 42 | 1018 | 10 | NE 7.4 | |
| Ieri h: 20:56 | Sereno | 27 | 13 | 42 | 1018 | 10 | O/NO 7.4 | |
| Ieri h: 19:56 | Sereno | 27 | 12 | 39 | 1017 | 10 | O 9.3 | |
| Ieri h: 18:56 | Sereno | 29 | 12 | 35 | 1016 | 10 | SO 20.3 | |
| Ieri h: 17:56 | Poco Nuvoloso | 29 | 14 | 39 | 1016 | 10 | E/NE 13 | |
| Ieri h: 16:56 | Molto Nuvoloso | 33 | 13 | 29 | 1016 | 10 | E 25.9 | |
| Ieri h: 15:56 | Sereno | 35 | 11 | 23 | 1016 | 10 | N 0 | |
| Ieri h: 14:56 | Sereno | 34 | 11 | 24 | 1017 | 10 | N 9.3 | |
| Ieri h: 13:56 | Sereno | 33 | 11 | 26 | 1018 | 10 | N 7.4 | |
| Ieri h: 12:56 | Sereno | 32 | 11 | 27 | 1019 | 10 | N 0 | |
| Ieri h: 11:56 | Sereno | 31 | 12 | 31 | 1020 | 10 | N 0 | |



